AUA7 LOWW-VTBS
Flight info
| Callsign | AUA7 |
|---|---|
| Flight time | 9h 25m |
| Altitude | 37000 |
| Route | ADAMA DCT VEDER DCT ALAMU DCT BUDOP DCT IRLOX DCT OPT DCT LUGEB DCT UDROS DCT BAMUP DCT ROLIN N644 ODILI DCT BARAD M747 SULEL N449 DUKAN B449 MAMED/N0489F390 B449 RANAH L750 MERUN G452 LKN R460 BBN P646 PUPAM/N0487F410 P646 JJS Z12 DOPID P646 PTN N895 BETNO G463 TARED DCT WILLA WILLA1C |
| Aircraft | B772/H-SDE2E3FGHIJ5LORVWXY/LB1D1 |
Departure
| Time | 2026-04-30 22:45 |
|---|---|
| Airport | Vienna International Airport (LOWW) |
Arrival
| Time | 2026-05-01 08:11 |
|---|---|
| Airport | Suvarnabhumi Airport (VTBS) |
| Time | Latitude | Longitude | Altitude | Speed | Heading |
|---|---|---|---|---|---|
| 2026-04-30 22:12 | 48.11807 | 16.56502 | 614 ft | 0 kts | 26° |
| 2026-04-30 22:34 | 48.11785 | 16.56483 | 632 ft | 4 kts | 35° |
| 2026-04-30 22:35 | 48.11750 | 16.56426 | 628 ft | 4 kts | 74° |
| 2026-04-30 22:36 | 48.11749 | 16.56396 | 628 ft | 0 kts | 116° |
| 2026-04-30 22:38 | 48.11725 | 16.56470 | 626 ft | 10 kts | 116° |
| 2026-04-30 22:39 | 48.11694 | 16.56563 | 621 ft | 10 kts | 116° |
| 2026-04-30 22:39 | 48.11603 | 16.56842 | 620 ft | 10 kts | 116° |
| 2026-04-30 22:40 | 48.11469 | 16.57255 | 625 ft | 15 kts | 116° |
| 2026-04-30 22:41 | 48.11322 | 16.57338 | 624 ft | 9 kts | 205° |
| 2026-04-30 22:41 | 48.11237 | 16.57471 | 626 ft | 15 kts | 115° |
| 2026-04-30 22:42 | 48.11052 | 16.57756 | 622 ft | 2 kts | 279° |
| 2026-04-30 22:43 | 48.11084 | 16.57649 | 627 ft | 13 kts | 290° |
| 2026-04-30 22:43 | 48.11050 | 16.57506 | 620 ft | 8 kts | 204° |
| 2026-04-30 22:44 | 48.10962 | 16.57384 | 623 ft | 10 kts | 288° |
| 2026-04-30 22:45 | 48.12004 | 16.54160 | 1188 ft | 170 kts | 297° |
| 2026-04-30 22:45 | 48.12368 | 16.50562 | 2488 ft | 211 kts | 242° |
| 2026-04-30 22:46 | 48.09556 | 16.48811 | 3034 ft | 247 kts | 178° |
| 2026-04-30 22:47 | 48.02623 | 16.51334 | 5134 ft | 277 kts | 144° |
| 2026-04-30 22:47 | 47.99299 | 16.54397 | 6735 ft | 282 kts | 146° |
| 2026-04-30 22:48 | 47.96406 | 16.58092 | 7947 ft | 278 kts | 109° |
| 2026-04-30 22:49 | 47.97006 | 16.66177 | 10169 ft | 269 kts | 68° |
| 2026-04-30 22:49 | 47.99063 | 16.74955 | 10862 ft | 332 kts | 69° |
| 2026-04-30 22:50 | 48.00373 | 16.89331 | 13434 ft | 357 kts | 84° |
| 2026-04-30 22:51 | 48.00736 | 16.96777 | 14888 ft | 362 kts | 82° |
| 2026-04-30 22:51 | 48.01131 | 17.04354 | 16136 ft | 368 kts | 85° |
| 2026-04-30 22:52 | 48.00989 | 17.08231 | 16643 ft | 378 kts | 92° |
| 2026-04-30 22:52 | 48.00270 | 17.16012 | 17842 ft | 384 kts | 93° |
| 2026-04-30 22:53 | 47.99580 | 17.23994 | 18925 ft | 392 kts | 92° |
| 2026-04-30 22:53 | 47.98952 | 17.32109 | 20013 ft | 393 kts | 91° |
| 2026-04-30 22:53 | 47.98526 | 17.36141 | 20531 ft | 397 kts | 98° |
| 2026-04-30 22:54 | 47.96828 | 17.44125 | 21391 ft | 408 kts | 104° |
| 2026-04-30 22:55 | 47.93960 | 17.56237 | 22735 ft | 416 kts | 103° |
| 2026-04-30 22:55 | 47.92117 | 17.64439 | 23649 ft | 421 kts | 103° |
| 2026-04-30 22:56 | 47.90254 | 17.72838 | 24264 ft | 429 kts | 103° |
| 2026-04-30 22:56 | 47.87425 | 17.85517 | 25508 ft | 432 kts | 103° |
| 2026-04-30 22:57 | 47.85514 | 17.94044 | 26183 ft | 436 kts | 103° |
| 2026-04-30 22:57 | 47.83317 | 18.02546 | 26879 ft | 445 kts | 109° |
| 2026-04-30 22:58 | 47.80629 | 18.10966 | 27378 ft | 453 kts | 110° |
| 2026-04-30 22:59 | 47.76618 | 18.23689 | 28427 ft | 457 kts | 109° |
| 2026-04-30 22:59 | 47.72591 | 18.36539 | 29282 ft | 462 kts | 109° |
| 2026-05-01 07:23 | 15.79657 | 96.82501 | 40880 ft | 500 kts | 121° |
| 2026-05-01 07:24 | 15.74852 | 96.92105 | 40877 ft | 499 kts | 121° |
| 2026-05-01 07:24 | 15.71646 | 96.98506 | 40877 ft | 499 kts | 121° |
| 2026-05-01 07:25 | 15.68459 | 97.04863 | 40881 ft | 499 kts | 121° |
| 2026-05-01 07:25 | 15.65252 | 97.11255 | 40879 ft | 499 kts | 121° |
| 2026-05-01 07:26 | 15.62035 | 97.17659 | 40877 ft | 500 kts | 121° |
| 2026-05-01 07:26 | 15.58820 | 97.24056 | 40877 ft | 500 kts | 121° |
| 2026-05-01 07:27 | 15.55601 | 97.30454 | 40876 ft | 500 kts | 121° |
| 2026-05-01 07:27 | 15.52404 | 97.36804 | 40877 ft | 500 kts | 121° |
| 2026-05-01 07:28 | 15.49180 | 97.43202 | 40872 ft | 499 kts | 121° |
| 2026-05-01 07:28 | 15.45958 | 97.49589 | 40875 ft | 499 kts | 121° |
| 2026-05-01 07:29 | 15.42756 | 97.55930 | 40876 ft | 499 kts | 121° |
| 2026-05-01 07:29 | 15.39533 | 97.62309 | 40869 ft | 500 kts | 121° |
| 2026-05-01 07:30 | 15.36307 | 97.68688 | 40879 ft | 500 kts | 121° |
| 2026-05-01 07:30 | 15.33083 | 97.75058 | 40880 ft | 500 kts | 121° |
| 2026-05-01 07:31 | 15.29850 | 97.81439 | 40881 ft | 500 kts | 121° |
| 2026-05-01 07:32 | 15.21768 | 97.97367 | 40873 ft | 501 kts | 121° |
| 2026-05-01 07:33 | 15.16917 | 98.06913 | 40883 ft | 501 kts | 121° |
| 2026-05-01 07:33 | 15.12045 | 98.16489 | 40891 ft | 502 kts | 121° |
| 2026-05-01 07:34 | 15.07312 | 98.25847 | 40886 ft | 503 kts | 121° |
| 2026-05-01 07:35 | 15.04121 | 98.32287 | 40892 ft | 503 kts | 121° |
| 2026-05-01 07:35 | 15.00927 | 98.38735 | 40883 ft | 503 kts | 120° |
| 2026-05-01 07:36 | 14.97725 | 98.45177 | 40893 ft | 503 kts | 121° |
| 2026-05-01 07:36 | 14.94523 | 98.51604 | 40894 ft | 503 kts | 121° |
| 2026-05-01 07:37 | 14.89714 | 98.61244 | 40900 ft | 502 kts | 120° |
| 2026-05-01 07:37 | 14.86509 | 98.67661 | 40901 ft | 502 kts | 121° |
| 2026-05-01 07:38 | 14.83300 | 98.74083 | 40896 ft | 503 kts | 121° |
| 2026-05-01 07:39 | 14.78498 | 98.83682 | 40913 ft | 503 kts | 121° |
| 2026-05-01 07:39 | 14.73666 | 98.93330 | 40883 ft | 504 kts | 120° |
| 2026-05-01 07:40 | 14.70441 | 98.99762 | 40879 ft | 504 kts | 120° |
| 2026-05-01 07:40 | 14.67237 | 99.06147 | 40888 ft | 504 kts | 121° |
| 2026-05-01 07:41 | 14.65599 | 99.09410 | 40580 ft | 510 kts | 120° |
| 2026-05-01 07:41 | 14.63973 | 99.12644 | 39824 ft | 514 kts | 120° |
| 2026-05-01 07:41 | 14.60685 | 99.19187 | 38360 ft | 512 kts | 120° |
| 2026-05-01 07:42 | 14.59041 | 99.22455 | 37487 ft | 513 kts | 120° |
| 2026-05-01 07:42 | 14.57398 | 99.25721 | 36654 ft | 512 kts | 120° |
| 2026-05-01 07:42 | 14.55753 | 99.28989 | 35829 ft | 512 kts | 120° |
| 2026-05-01 07:42 | 14.54108 | 99.32255 | 34853 ft | 514 kts | 120° |
| 2026-05-01 07:43 | 14.52452 | 99.35535 | 33852 ft | 518 kts | 119° |
| 2026-05-01 07:43 | 14.51350 | 99.37725 | 33037 ft | 518 kts | 119° |
| 2026-05-01 07:43 | 14.47999 | 99.44377 | 30692 ft | 525 kts | 119° |
| 2026-05-01 07:44 | 14.44997 | 99.51172 | 28939 ft | 517 kts | 109° |
| 2026-05-01 07:44 | 14.43439 | 99.58332 | 27268 ft | 507 kts | 97° |
| 2026-05-01 07:45 | 14.43189 | 99.61934 | 26482 ft | 501 kts | 94° |
| 2026-05-01 07:45 | 14.43005 | 99.65474 | 25699 ft | 488 kts | 94° |
| 2026-05-01 07:45 | 14.42822 | 99.68952 | 24944 ft | 484 kts | 94° |
| 2026-05-01 07:45 | 14.42627 | 99.72389 | 24172 ft | 480 kts | 94° |
| 2026-05-01 07:46 | 14.42421 | 99.75800 | 23414 ft | 471 kts | 94° |
| 2026-05-01 07:46 | 14.42210 | 99.79148 | 22549 ft | 469 kts | 95° |
| 2026-05-01 07:46 | 14.41782 | 99.85782 | 21035 ft | 455 kts | 95° |
| 2026-05-01 07:47 | 14.41571 | 99.89036 | 20330 ft | 452 kts | 95° |
| 2026-05-01 07:47 | 14.41362 | 99.92255 | 19638 ft | 448 kts | 95° |
| 2026-05-01 07:47 | 14.41154 | 99.95464 | 18935 ft | 446 kts | 95° |
| 2026-05-01 07:47 | 14.40948 | 99.98649 | 18328 ft | 443 kts | 95° |
| 2026-05-01 07:48 | 14.40559 | 100.04686 | 17903 ft | 397 kts | 95° |
| 2026-05-01 07:48 | 14.40265 | 100.07432 | 17663 ft | 380 kts | 103° |
| 2026-05-01 07:48 | 14.39623 | 100.10065 | 17392 ft | 376 kts | 108° |
| 2026-05-01 07:49 | 14.38876 | 100.12662 | 17120 ft | 378 kts | 108° |
| 2026-05-01 07:49 | 14.37487 | 100.17905 | 16568 ft | 377 kts | 106° |
| 2026-05-01 07:49 | 14.36835 | 100.20518 | 16288 ft | 375 kts | 106° |
| 2026-05-01 07:50 | 14.36190 | 100.23104 | 16016 ft | 372 kts | 106° |
| 2026-05-01 07:50 | 14.34915 | 100.28214 | 15482 ft | 368 kts | 105° |
| 2026-05-01 07:50 | 14.34278 | 100.30756 | 15203 ft | 366 kts | 105° |
| 2026-05-01 07:51 | 14.33634 | 100.33325 | 14947 ft | 363 kts | 105° |
| 2026-05-01 07:51 | 14.33011 | 100.35808 | 14685 ft | 362 kts | 105° |
| 2026-05-01 07:51 | 14.32383 | 100.38311 | 14425 ft | 360 kts | 105° |
| 2026-05-01 07:52 | 14.31147 | 100.43242 | 13879 ft | 340 kts | 105° |
| 2026-05-01 07:52 | 14.30571 | 100.45537 | 13627 ft | 322 kts | 106° |
| 2026-05-01 07:52 | 14.30015 | 100.47749 | 13386 ft | 316 kts | 106° |
| 2026-05-01 07:53 | 14.28921 | 100.52095 | 12921 ft | 311 kts | 106° |
| 2026-05-01 07:53 | 14.28379 | 100.54248 | 12696 ft | 310 kts | 106° |
| 2026-05-01 07:53 | 14.27839 | 100.56393 | 12459 ft | 308 kts | 106° |
| 2026-05-01 07:53 | 14.27301 | 100.58528 | 12242 ft | 307 kts | 106° |
| 2026-05-01 07:54 | 14.26217 | 100.62744 | 11795 ft | 300 kts | 111° |
| 2026-05-01 07:55 | 14.21338 | 100.66037 | 11297 ft | 300 kts | 182° |
| 2026-05-01 07:55 | 14.17359 | 100.65127 | 10863 ft | 294 kts | 195° |
| 2026-05-01 07:56 | 14.11412 | 100.63507 | 10221 ft | 294 kts | 194° |
| 2026-05-01 07:56 | 14.07582 | 100.62492 | 9818 ft | 278 kts | 194° |
| 2026-05-01 07:57 | 14.05710 | 100.61999 | 9601 ft | 276 kts | 194° |
| 2026-05-01 07:57 | 14.02060 | 100.61198 | 9163 ft | 259 kts | 176° |
| 2026-05-01 07:58 | 13.99072 | 100.62914 | 8752 ft | 252 kts | 130° |
| 2026-05-01 07:58 | 13.97735 | 100.66219 | 8299 ft | 254 kts | 105° |
| 2026-05-01 07:59 | 13.97125 | 100.69787 | 7798 ft | 255 kts | 82° |
| 2026-05-01 07:59 | 13.99169 | 100.72622 | 7328 ft | 254 kts | 26° |
| 2026-05-01 08:00 | 14.06056 | 100.74524 | 6398 ft | 259 kts | 15° |
| 2026-05-01 08:01 | 14.09207 | 100.78121 | 5936 ft | 244 kts | 95° |
| 2026-05-01 08:01 | 14.08939 | 100.79823 | 5812 ft | 246 kts | 102° |
| 2026-05-01 08:01 | 14.08596 | 100.81561 | 5668 ft | 249 kts | 103° |
| 2026-05-01 08:02 | 14.07915 | 100.85012 | 5376 ft | 242 kts | 103° |
| 2026-05-01 08:02 | 14.07514 | 100.86673 | 5241 ft | 235 kts | 116° |
| 2026-05-01 08:03 | 14.04944 | 100.88508 | 5115 ft | 234 kts | 179° |
| 2026-05-01 08:03 | 14.03404 | 100.88171 | 4973 ft | 227 kts | 204° |
| 2026-05-01 08:03 | 14.00641 | 100.86699 | 4591 ft | 219 kts | 213° |
| 2026-05-01 08:04 | 13.99408 | 100.83925 | 4205 ft | 227 kts | 251° |
| 2026-05-01 08:04 | 13.97131 | 100.82068 | 4052 ft | 220 kts | 181° |
| 2026-05-01 08:05 | 13.94086 | 100.82123 | 4015 ft | 224 kts | 184° |
| 2026-05-01 08:05 | 13.92538 | 100.81965 | 4005 ft | 224 kts | 186° |
| 2026-05-01 08:05 | 13.91007 | 100.81762 | 3993 ft | 217 kts | 189° |
| 2026-05-01 08:06 | 13.88147 | 100.81116 | 3641 ft | 209 kts | 194° |
| 2026-05-01 08:06 | 13.85355 | 100.80380 | 3132 ft | 208 kts | 194° |
| 2026-05-01 08:07 | 13.82580 | 100.79645 | 2598 ft | 200 kts | 194° |
| 2026-05-01 08:07 | 13.80030 | 100.78971 | 2099 ft | 185 kts | 194° |
| 2026-05-01 08:08 | 13.78841 | 100.78657 | 1907 ft | 167 kts | 194° |
| 2026-05-01 08:08 | 13.76820 | 100.78123 | 1502 ft | 133 kts | 194° |
| 2026-05-01 08:09 | 13.75030 | 100.77650 | 1167 ft | 135 kts | 194° |
| 2026-05-01 08:09 | 13.74116 | 100.77413 | 1025 ft | 138 kts | 194° |
| 2026-05-01 08:09 | 13.73176 | 100.77168 | 817 ft | 138 kts | 195° |
| 2026-05-01 08:10 | 13.71294 | 100.76669 | 490 ft | 142 kts | 197° |
| 2026-05-01 08:10 | 13.69395 | 100.76170 | 118 ft | 140 kts | 197° |
| 2026-05-01 08:11 | 13.67717 | 100.75722 | 16 ft | 95 kts | 194° |
| 2026-05-01 08:11 | 13.66918 | 100.75511 | 18 ft | 28 kts | 194° |
| 2026-05-01 08:12 | 13.66653 | 100.75327 | 18 ft | 11 kts | 238° |
| 2026-05-01 08:12 | 13.66670 | 100.75269 | 17 ft | 9 kts | 333° |
| 2026-05-01 08:12 | 13.66814 | 100.75294 | 17 ft | 17 kts | 14° |
| 2026-05-01 08:13 | 13.66968 | 100.75334 | 17 ft | 26 kts | 14° |
| 2026-05-01 08:13 | 13.67140 | 100.75378 | 17 ft | 26 kts | 14° |
| 2026-05-01 08:13 | 13.67487 | 100.75470 | 17 ft | 26 kts | 14° |
| 2026-05-01 08:14 | 13.67660 | 100.75516 | 17 ft | 26 kts | 14° |
| 2026-05-01 08:14 | 13.67832 | 100.75561 | 17 ft | 26 kts | 14° |
| 2026-05-01 08:14 | 13.68007 | 100.75607 | 17 ft | 26 kts | 14° |
| 2026-05-01 08:14 | 13.68179 | 100.75651 | 17 ft | 23 kts | 14° |
| 2026-05-01 08:15 | 13.68294 | 100.75670 | 18 ft | 13 kts | 340° |
| 2026-05-01 08:15 | 13.68346 | 100.75513 | 17 ft | 12 kts | 283° |
| 2026-05-01 08:15 | 13.68353 | 100.75485 | 17 ft | 0 kts | 287° |
| 2026-05-01 08:16 | 13.68357 | 100.75473 | 17 ft | 8 kts | 287° |
| 2026-05-01 08:16 | 13.68382 | 100.75386 | 17 ft | 15 kts | 283° |
| 2026-05-01 08:16 | 13.68410 | 100.75265 | 17 ft | 19 kts | 285° |
| 2026-05-01 08:17 | 13.68439 | 100.75160 | 18 ft | 10 kts | 285° |
| 2026-05-01 08:17 | 13.68434 | 100.75099 | 18 ft | 9 kts | 238° |
| 2026-05-01 08:17 | 13.68397 | 100.75082 | 18 ft | 0 kts | 195° |
| 2026-05-01 08:18 | 13.68387 | 100.75077 | 18 ft | 4 kts | 205° |
| 2026-05-01 08:18 | 13.68379 | 100.75001 | 18 ft | 9 kts | 285° |
| 2026-05-01 08:19 | 13.68415 | 100.74861 | 18 ft | 10 kts | 284° |
| 2026-05-01 08:19 | 13.68431 | 100.74794 | 18 ft | 10 kts | 284° |
| 2026-05-01 08:19 | 13.68437 | 100.74755 | 18 ft | 4 kts | 269° |
| 2026-05-01 08:19 | 13.68442 | 100.74725 | 18 ft | 4 kts | 283° |
| 2026-05-01 08:20 | 13.68452 | 100.74693 | 18 ft | 6 kts | 285° |
| 2026-05-01 08:20 | 13.68434 | 100.74662 | 19 ft | 6 kts | 202° |
| 2026-05-01 08:20 | 13.68397 | 100.74651 | 18 ft | 5 kts | 194° |
| 2026-05-01 08:20 | 13.68378 | 100.74646 | 18 ft | 1 kts | 194° |
| 2026-05-01 08:21 | 13.68372 | 100.74645 | 18 ft | 1 kts | 194° |
| 2026-05-01 08:21 | 13.68369 | 100.74644 | 18 ft | 0 kts | 194° |